createdAt,value
2022-11-29T00:00:18.917Z,-1.22
2022-11-29T00:10:24.498Z,-1.19
2022-11-29T00:20:30.213Z,-1.18
2022-11-29T00:30:35.920Z,-1.17
2022-11-29T00:40:41.548Z,-1.14
2022-11-29T00:50:47.168Z,-1.12
2022-11-29T01:00:53.470Z,-1.09
2022-11-29T01:11:06.625Z,-1.06
2022-11-29T01:21:14.069Z,-1.06
2022-11-29T01:31:22.836Z,-1.06
2022-11-29T01:41:29.790Z,-1.08
2022-11-29T01:51:37.697Z,-1.09
2022-11-29T02:01:44.396Z,-1.07
2022-11-29T02:12:08.516Z,-1.08
2022-11-29T02:22:18.997Z,-1.11
2022-11-29T02:32:58.574Z,-1.14
2022-11-29T02:43:26.311Z,-1.17
2022-11-29T02:53:39.475Z,-1.19
2022-11-29T03:03:51.900Z,-1.22
2022-11-29T03:14:19.820Z,-1.25
2022-11-29T03:24:32.214Z,-1.26
2022-11-29T03:34:57.162Z,-1.31
2022-11-29T03:45:09.105Z,-1.37
2022-11-29T03:55:26.139Z,-1.38
2022-11-29T04:06:03.837Z,-1.41
2022-11-29T04:16:45.590Z,-1.46
2022-11-29T04:27:30.889Z,-1.39
2022-11-29T04:37:58.485Z,-1.39
2022-11-29T04:48:19.946Z,-1.44
2022-11-29T04:58:31.108Z,-1.44
2022-11-29T05:08:48.113Z,-1.42
2022-11-29T05:19:12.701Z,-1.41
2022-11-29T05:29:27.596Z,-1.43
2022-11-29T05:39:42.605Z,-1.44
2022-11-29T05:49:59.267Z,-1.44
2022-11-29T06:00:07.755Z,-1.42
2022-11-29T06:10:17.844Z,-1.44
2022-11-29T06:20:43.445Z,-1.42
2022-11-29T06:31:01.130Z,-1.37
2022-11-29T06:41:14.782Z,-1.36
2022-11-29T06:51:29.975Z,-1.36
2022-11-29T07:01:43.900Z,-1.33
2022-11-29T07:11:50.529Z,-1.29
2022-11-29T07:22:07.567Z,-1.29
2022-11-29T07:32:20.673Z,-1.27
2022-11-29T07:42:33.253Z,-1.21
2022-11-29T07:52:38.878Z,-1.18
2022-11-29T08:02:44.954Z,-1.12
2022-11-29T08:12:52.029Z,-1.04
2022-11-29T08:22:58.896Z,-1.04
2022-11-29T08:33:04.648Z,-0.98
2022-11-29T08:43:10.212Z,-0.91
2022-11-29T08:53:32.989Z,-0.76
2022-11-29T09:03:56.023Z,-0.67
2022-11-29T09:14:03.417Z,-0.72
2022-11-29T09:24:10.256Z,-0.73
2022-11-29T09:34:14.835Z,-0.76
2022-11-29T09:44:31.612Z,-0.71
2022-11-29T09:54:38.375Z,-0.64
2022-11-29T10:04:45.185Z,-0.56
2022-11-29T10:14:58.737Z,-0.44
2022-11-29T10:25:07.686Z,-0.34
2022-11-29T10:35:17.634Z,-0.25
2022-11-29T10:45:34.993Z,-0.11
2022-11-29T10:55:45.115Z,-0.04
2022-11-29T11:06:06.831Z,-0.05
2022-11-29T11:16:18.458Z,0.08
2022-11-29T11:26:25.951Z,0.10
2022-11-29T11:36:31.566Z,0.05
2022-11-29T11:46:51.493Z,0.07
2022-11-29T11:56:57.291Z,0.28
2022-11-29T12:07:04.379Z,0.40
2022-11-29T12:17:18.467Z,0.40
2022-11-29T12:27:25.876Z,0.41
2022-11-29T12:37:38.544Z,0.42
2022-11-29T12:47:54.892Z,0.39
2022-11-29T12:58:11.826Z,0.31
2022-11-29T13:08:39.569Z,0.31
2022-11-29T13:18:52.538Z,0.29
2022-11-29T13:28:59.080Z,0.20
2022-11-29T13:39:17.613Z,0.19
2022-11-29T13:49:52.718Z,0.18
2022-11-29T13:59:58.306Z,0.12
2022-11-29T14:10:06.866Z,0.04
2022-11-29T14:20:51.481Z,-0.01
2022-11-29T14:30:58.453Z,-0.04
2022-11-29T14:41:07.384Z,-0.04
2022-11-29T14:51:16.596Z,-0.07
2022-11-29T15:01:23.331Z,-0.09
2022-11-29T15:11:44.407Z,-0.08
2022-11-29T15:21:57.754Z,-0.10
2022-11-29T15:32:06.824Z,-0.11
2022-11-29T15:42:15.492Z,-0.13
2022-11-29T15:52:27.976Z,-0.17
2022-11-29T16:02:37.087Z,-0.20
2022-11-29T16:12:56.130Z,-0.23
2022-11-29T16:23:14.800Z,-0.23
2022-11-29T16:33:25.394Z,-0.24
2022-11-29T16:43:53.263Z,-0.26
2022-11-29T16:54:23.584Z,-0.31
2022-11-29T17:04:29.228Z,-0.33
2022-11-29T17:14:34.933Z,-0.37
2022-11-29T17:24:47.417Z,-0.42
2022-11-29T17:34:53.770Z,-0.46
2022-11-29T17:44:59.389Z,-0.49
2022-11-29T17:55:05.559Z,-0.56
2022-11-29T18:05:11.898Z,-0.62
2022-11-29T18:15:17.943Z,-0.64
2022-11-29T18:25:38.660Z,-0.67
2022-11-29T18:35:44.976Z,-0.74
2022-11-29T18:45:51.920Z,-0.79
2022-11-29T18:56:04.836Z,-0.83
2022-11-29T19:06:13.435Z,-0.93
2022-11-29T19:16:22.184Z,-1.02
2022-11-29T19:26:29.761Z,-1.10
2022-11-29T19:36:37.129Z,-1.23
2022-11-29T19:46:45.704Z,-1.31
2022-11-29T19:56:51.369Z,-1.32
2022-11-29T20:06:58.041Z,-1.33
2022-11-29T20:17:03.778Z,-1.43
2022-11-29T20:27:09.403Z,-1.51
2022-11-29T20:37:37.315Z,-1.58
2022-11-29T20:47:51.416Z,-1.56
2022-11-29T20:57:57.246Z,-1.60
2022-11-29T21:08:02.843Z,-1.62
2022-11-29T21:18:15.537Z,-1.70
2022-11-29T21:28:25.653Z,-1.86
2022-11-29T21:38:31.912Z,-1.97
2022-11-29T21:48:37.899Z,-1.98
2022-11-29T21:58:43.904Z,-2.05
2022-11-29T22:08:50.778Z,-2.20
2022-11-29T22:18:57.126Z,-2.20
2022-11-29T22:29:02.744Z,-2.15
2022-11-29T22:39:09.345Z,-2.15
2022-11-29T22:49:15.592Z,-2.16
2022-11-29T22:59:21.522Z,-2.17
2022-11-29T23:09:27.201Z,-2.21
2022-11-29T23:19:33.102Z,-2.20
2022-11-29T23:29:39.032Z,-2.17
2022-11-29T23:39:44.903Z,-2.13
2022-11-29T23:49:50.570Z,-2.19
2022-11-29T23:59:56.281Z,-2.24
